Time;durP1;ratioP1;P1;durP2;ratioP2;P2;SDS_P1;SDS_P2;PMS_P1;PMS_P2;Temp;Humidity;BMP_temperature;BMP_pressure;BME280_temperature;BME280_humidity;BME280_pressure;Samples;Min_cycle;Max_cycle;Signal;HPM_P1;HPM_P2
2021/12/05 00:18:08;;;;;;;2.28;1.08;;;;;;;7.27;57.90;99559.50;5042105;28;20035;-89
2021/12/05 00:26:25;;;;;;;3.08;1.00;;;;;;;7.35;58.55;99554.97;4971704;28;20436;-89
2021/12/05 00:34:07;;;;;;;4.60;1.45;;;;;;;7.35;58.09;99559.28;5043943;28;20069;-89
2021/12/05 00:42:20;;;;;;;7.82;1.90;;;;;;;7.42;58.06;99555.66;5044980;28;20103;-89
2021/12/05 01:14:07;;;;;;;4.90;0.90;;;;;;;7.31;58.24;99575.78;5042598;28;20041;-89
2021/12/05 01:16:33;;;;;;;4.00;1.15;;;;;;;6.95;57.86;99580.16;5034257;28;20044;-89
2021/12/05 01:18:59;;;;;;;3.63;1.10;;;;;;;6.98;58.27;99582.66;5045935;28;20041;-89
2021/12/05 01:21:25;;;;;;;3.10;0.85;;;;;;;7.16;57.85;99579.63;5035086;28;20368;-89
2021/12/05 01:26:27;;;;;;;2.03;1.23;;;;;;;7.07;58.37;99580.69;5046023;28;20029;-89
2021/12/05 01:36:49;;;;;;;3.33;1.08;;;;;;;6.97;58.46;99584.38;5038032;28;20089;-89
2021/12/05 01:39:40;;;;;;;3.45;1.40;;;;;;;7.19;57.58;99578.69;5028929;28;20060;-89
2021/12/05 01:42:45;;;;;;;3.10;1.10;;;;;;;6.98;58.38;99588.69;5039248;28;20057;-89
2021/12/05 01:51:02;;;;;;;4.80;1.25;;;;;;;7.09;57.98;99602.16;5038262;28;20195;-89
2021/12/05 01:53:36;;;;;;;6.95;1.13;;;;;;;6.99;57.18;99592.09;5044496;28;20033;-89
2021/12/05 02:10:39;;;;;;;1.42;0.90;;;;;;;7.05;59.36;99600.53;5044981;28;20057;-89
2021/12/05 02:41:46;;;;;;;9.50;1.67;;;;;;;7.03;58.82;99599.72;5041615;28;20027;-89
2021/12/05 02:44:24;;;;;;;3.35;1.38;;;;;;;7.08;59.13;99599.59;5033957;28;20049;-89
2021/12/05 02:47:00;;;;;;;2.33;1.00;;;;;;;7.01;58.65;99592.91;5025200;28;20040;-89
2021/12/05 02:49:27;;;;;;;3.70;1.17;;;;;;;7.03;58.56;99585.97;5040557;28;20056;-89
2021/12/05 02:51:58;;;;;;;4.22;1.30;;;;;;;6.87;58.14;99580.34;5048912;28;20029;-89
2021/12/05 02:54:27;;;;;;;3.42;0.98;;;;;;;6.82;59.34;99577.03;5053532;28;20067;-89
2021/12/05 02:56:55;;;;;;;2.90;1.10;;;;;;;6.95;58.06;99577.56;5034990;28;20033;-89
2021/12/05 02:59:27;;;;;;;4.85;1.20;;;;;;;6.92;57.64;99573.34;5042934;28;20445;-89
2021/12/05 03:02:06;;;;;;;4.55;1.10;;;;;;;6.85;57.92;99576.94;5046253;28;20032;-89
2021/12/05 03:04:33;;;;;;;6.25;1.30;;;;;;;6.84;56.95;99577.81;5036445;28;20127;-89
2021/12/05 03:07:04;;;;;;;3.33;1.25;;;;;;;6.94;56.94;99568.97;5037615;28;20077;-89
2021/12/05 03:09:30;;;;;;;3.47;0.90;;;;;;;6.74;58.41;99571.22;5065409;28;20082;-89
2021/12/05 03:11:55;;;;;;;3.38;0.88;;;;;;;6.59;58.10;99566.41;5044644;28;20024;-89
2021/12/05 03:14:22;;;;;;;2.95;0.90;;;;;;;6.92;56.15;99569.91;5034484;28;20123;-89
2021/12/05 03:16:47;;;;;;;3.78;1.10;;;;;;;6.77;56.29;99572.88;5039234;28;20064;-89
2021/12/05 03:19:15;;;;;;;4.30;1.98;;;;;;;6.81;56.88;99572.72;5048658;28;20462;-89
2021/12/05 03:21:42;;;;;;;5.05;1.42;;;;;;;6.95;54.74;99562.09;5007077;28;20048;-89
2021/12/05 03:24:09;;;;;;;3.63;0.85;;;;;;;6.87;55.81;99557.09;5045118;28;20114;-88
2021/12/05 03:26:38;;;;;;;6.30;1.20;;;;;;;6.81;56.48;99561.59;5037858;28;20059;-89
2021/12/05 03:29:06;;;;;;;2.80;1.15;;;;;;;6.84;56.48;99558.94;5045855;28;20073;-89
2021/12/05 03:31:32;;;;;;;4.18;0.90;;;;;;;6.79;56.66;99568.50;5025798;28;20040;-89
2021/12/05 03:34:00;;;;;;;3.55;0.90;;;;;;;6.78;57.05;99567.66;5036035;28;20037;-88
2021/12/05 03:36:26;;;;;;;3.97;1.10;;;;;;;6.68;56.56;99561.03;5035091;28;20037;-88
2021/12/05 03:38:51;;;;;;;4.53;1.20;;;;;;;6.50;57.30;99571.78;5026133;28;20447;-88
2021/12/05 03:41:18;;;;;;;4.63;1.20;;;;;;;6.66;57.82;99574.88;5038144;28;20026;-89
2021/12/05 03:43:44;;;;;;;3.15;1.00;;;;;;;6.72;56.10;99572.13;5040988;28;20037;-89
2021/12/05 03:46:11;;;;;;;3.10;0.77;;;;;;;6.64;57.54;99569.72;5038779;28;20044;-89
2021/12/05 03:48:40;;;;;;;4.38;1.10;;;;;;;6.69;57.34;99577.38;5026486;28;20110;-88
2021/12/05 03:51:08;;;;;;;4.68;0.88;;;;;;;6.50;56.62;99574.38;5009091;28;20117;-88
2021/12/05 03:53:33;;;;;;;2.55;0.73;;;;;;;6.67;55.58;99579.13;5040443;28;20033;-88
2021/12/05 03:56:02;;;;;;;1.33;0.75;;;;;;;6.64;57.36;99571.44;5042224;28;20043;-89
2021/12/05 03:58:28;;;;;;;6.28;0.90;;;;;;;6.62;55.88;99566.34;5041192;28;20136;-88
2021/12/05 04:00:57;;;;;;;5.13;0.88;;;;;;;6.54;57.08;99573.44;5035894;28;20040;-89
2021/12/05 04:03:24;;;;;;;3.85;0.88;;;;;;;6.53;56.33;99569.16;5023267;28;20050;-88
2021/12/05 04:05:50;;;;;;;4.22;0.73;;;;;;;6.65;54.94;99574.00;5040235;28;20025;-89
2021/12/05 04:08:22;;;;;;;5.60;0.90;;;;;;;6.66;56.42;99570.56;5043846;28;20496;-89
2021/12/05 04:10:53;;;;;;;3.70;1.17;;;;;;;6.46;55.84;99570.13;5045966;28;20406;-88
2021/12/05 04:13:19;;;;;;;4.68;1.08;;;;;;;6.60;55.27;99568.13;5043086;28;20045;-88
2021/12/05 04:15:46;;;;;;;3.67;1.00;;;;;;;6.62;56.40;99575.81;5030698;28;20371;-88
2021/12/05 04:18:12;;;;;;;6.43;1.30;;;;;;;6.72;54.41;99572.13;5042055;28;20094;-89
2021/12/05 04:20:37;;;;;;;7.28;1.30;;;;;;;6.55;55.35;99570.78;5042038;28;20082;-88
2021/12/05 04:23:04;;;;;;;4.57;0.77;;;;;;;6.73;55.71;99571.22;5043521;28;20033;-89
2021/12/05 04:25:35;;;;;;;3.83;0.77;;;;;;;6.62;54.93;99566.34;5045177;28;20057;-88
2021/12/05 04:28:01;;;;;;;5.25;1.00;;;;;;;6.54;55.62;99565.69;5039706;28;20089;-88
2021/12/05 04:30:26;;;;;;;5.88;1.73;;;;;;;6.52;56.26;99559.69;5045421;28;20033;-88
2021/12/05 04:32:52;;;;;;;4.43;0.82;;;;;;;6.68;55.95;99555.03;5047962;28;20033;-88
2021/12/05 04:35:18;;;;;;;3.40;1.02;;;;;;;6.60;55.82;99556.94;5044315;28;20088;-89
2021/12/05 04:37:44;;;;;;;4.78;1.05;;;;;;;6.60;55.92;99560.38;5043829;28;20045;-88
2021/12/05 04:40:11;;;;;;;5.90;1.08;;;;;;;6.38;56.35;99554.00;5042634;28;20474;-89
2021/12/05 04:42:37;;;;;;;3.97;0.75;;;;;;;6.53;54.43;99544.19;5048014;28;20033;-88
2021/12/05 04:45:07;;;;;;;3.97;1.10;;;;;;;6.44;55.12;99543.53;5020568;28;20029;-89
2021/12/05 04:47:32;;;;;;;4.68;0.90;;;;;;;6.50;55.56;99546.84;5039483;28;20037;-88
2021/12/05 04:49:58;;;;;;;5.15;1.00;;;;;;;6.44;56.11;99546.09;5041137;28;20041;-88
2021/12/05 04:52:24;;;;;;;6.95;1.30;;;;;;;6.54;55.58;99539.88;5026642;28;20485;-88
2021/12/05 04:54:49;;;;;;;2.72;0.90;;;;;;;6.62;55.35;99537.97;5036008;28;20120;-88
2021/12/05 04:57:15;;;;;;;5.75;1.38;;;;;;;6.37;56.91;99536.81;5039354;28;20040;-88
2021/12/05 04:59:46;;;;;;;3.67;0.80;;;;;;;6.56;56.01;99535.53;5039781;28;20029;-88
2021/12/05 05:02:11;;;;;;;5.03;1.00;;;;;;;6.55;55.45;99532.09;5046123;28;20055;-88
2021/12/05 05:04:48;;;;;;;2.63;0.80;;;;;;;6.47;56.23;99536.59;5039480;28;20605;-88
2021/12/05 05:07:24;;;;;;;1.40;0.73;;;;;;;6.52;56.44;99536.47;5043343;28;20146;-88
2021/12/05 05:09:52;;;;;;;6.10;1.02;;;;;;;6.38;55.67;99535.94;5043247;28;20037;-88
2021/12/05 05:12:18;;;;;;;4.38;0.90;;;;;;;6.25;56.58;99529.34;5028664;28;20041;-89
2021/12/05 05:14:43;;;;;;;10.15;1.15;;;;;;;6.23;56.76;99536.28;5047782;28;20025;-88
2021/12/05 05:17:09;;;;;;;4.80;1.15;;;;;;;6.31;56.96;99535.22;5034823;28;20050;-89
2021/12/05 05:19:49;;;;;;;4.13;0.68;;;;;;;6.24;56.64;99535.41;5045659;28;20041;-88
2021/12/05 05:25:31;;;;;;;;;;;;;;;6.32;56.55;99526.63;5050085;28;20164;-88
2021/12/05 05:51:39;;;;;;;2.47;0.90;;;;;;;6.12;56.77;99561.47;5043530;28;20131;-88
2021/12/05 05:54:05;;;;;;;4.05;1.02;;;;;;;6.02;57.18;99561.66;5040063;28;20033;-88
2021/12/05 05:56:32;;;;;;;4.25;1.02;;;;;;;6.28;56.43;99561.06;5048380;28;20075;-88
2021/12/05 05:59:12;;;;;;;4.45;1.00;;;;;;;6.44;55.84;99565.03;5068760;28;20036;-88
2021/12/05 06:04:04;;;;;;;1.00;0.75;;;;;;;6.63;55.01;99568.06;5041685;28;20047;-88
2021/12/05 06:06:31;;;;;;;3.65;0.93;;;;;;;6.42;55.37;99569.38;5039115;28;20045;-88
2021/12/05 06:08:57;;;;;;;2.25;0.85;;;;;;;6.40;56.52;99570.25;5048906;28;20045;-88
2021/12/05 06:11:24;;;;;;;3.42;0.90;;;;;;;6.53;55.26;99570.00;5037257;28;20028;-88
2021/12/05 06:13:50;;;;;;;3.83;1.15;;;;;;;6.69;55.49;99570.47;5044054;28;20209;-88
2021/12/05 06:16:17;;;;;;;7.30;1.15;;;;;;;6.61;55.88;99577.53;5043939;28;20136;-88
2021/12/05 06:18:43;;;;;;;8.00;1.13;;;;;;;6.44;56.18;99574.47;5036176;28;20180;-89
2021/12/05 06:21:09;;;;;;;2.85;1.25;;;;;;;6.46;56.51;99578.72;5043733;28;20592;-88
2021/12/05 06:23:36;;;;;;;4.72;0.88;;;;;;;6.55;56.48;99583.69;5040672;28;20025;-88
2021/12/05 06:26:14;;;;;;;2.28;0.93;;;;;;;6.52;56.10;99585.50;5050297;28;20048;-88
2021/12/05 06:28:45;;;;;;;2.30;1.05;;;;;;;6.65;55.85;99588.63;5039161;28;20037;-88
2021/12/05 06:31:28;;;;;;;2.95;0.80;;;;;;;6.57;55.06;99591.41;5044250;28;20039;-88
2021/12/05 06:39:27;;;;;;;2.00;0.90;;;;;;;6.37;55.80;99593.53;5043328;28;20059;-88
2021/12/05 06:47:12;;;;;;;3.03;0.80;;;;;;;6.53;56.08;99600.09;5035458;28;20107;-88
2021/12/05 06:49:42;;;;;;;1.60;0.80;;;;;;;6.50;55.39;99607.91;5026589;28;20107;-88
2021/12/05 06:52:10;;;;;;;5.18;0.90;;;;;;;6.53;56.28;99607.84;5034812;28;20044;-88
2021/12/05 06:54:40;;;;;;;1.85;1.00;;;;;;;6.44;56.02;99613.19;5041206;28;20459;-88
2021/12/05 06:57:07;;;;;;;3.47;1.58;;;;;;;6.41;55.94;99624.41;5032496;28;20080;-88
2021/12/05 06:59:34;;;;;;;2.78;0.93;;;;;;;6.38;56.19;99618.47;5042345;28;20426;-88
2021/12/05 07:01:59;;;;;;;1.92;0.88;;;;;;;6.45;55.99;99614.88;5049647;28;20536;-88
2021/12/05 07:06:54;;;;;;;3.45;1.40;;;;;;;6.50;56.14;99626.81;5041788;28;20037;-89
2021/12/05 07:09:21;;;;;;;1.17;0.88;;;;;;;6.25;56.71;99627.34;5038386;28;20413;-89
2021/12/05 07:22:13;;;;;;;1.38;0.77;;;;;;;6.24;56.71;99617.94;5036252;28;20052;-88
2021/12/05 07:24:52;;;;;;;2.17;1.10;;;;;;;6.28;56.91;99629.84;5048002;28;20505;-88
2021/12/05 07:41:16;;;;;;;4.38;1.30;;;;;;;6.10;57.30;99644.00;5040447;28;20757;-88
2021/12/05 07:43:42;;;;;;;3.80;1.10;;;;;;;6.05;57.14;99638.09;5065134;28;20032;-88
2021/12/05 07:46:07;;;;;;;2.83;1.55;;;;;;;6.29;56.46;99642.72;5043373;28;20033;-88
2021/12/05 07:48:37;;;;;;;3.58;1.48;;;;;;;6.23;57.52;99647.16;5044668;28;20044;-89
2021/12/05 07:51:14;;;;;;;4.03;1.20;;;;;;;6.20;56.87;99642.94;5040866;28;20044;-90
2021/12/05 07:53:52;;;;;;;5.22;1.40;;;;;;;5.97;57.81;99651.16;5045342;28;20022;-89
2021/12/05 07:56:44;;;;;;;1.52;1.02;;;;;;;6.20;57.09;99650.66;5036648;28;20057;-89
2021/12/05 08:15:32;;;;;;;2.80;0.98;;;;;;;6.58;55.89;99667.91;5041850;28;20094;-88
2021/12/05 08:17:58;;;;;;;3.38;0.90;;;;;;;6.46;56.76;99669.00;5048463;28;20041;-89
2021/12/05 08:20:31;;;;;;;1.55;0.85;;;;;;;6.67;56.88;99669.44;5045173;28;20026;-90
2021/12/05 08:23:00;;;;;;;1.42;0.75;;;;;;;6.79;56.50;99667.44;5038121;28;20125;-89
2021/12/05 08:25:30;;;;;;;4.07;1.10;;;;;;;6.75;56.56;99675.28;5032166;28;20026;-89
2021/12/05 08:28:13;;;;;;;5.28;1.15;;;;;;;6.61;57.07;99674.72;5035793;28;20080;-89
2021/12/05 08:30:38;;;;;;;2.35;1.00;;;;;;;6.81;56.98;99672.56;5042468;28;20506;-89
2021/12/05 10:03:02;;;;;;;2.43;1.10;;;;;;;6.98;59.03;99756.50;5032003;28;20128;-89
2021/12/05 10:08:11;;;;;;;2.50;1.02;;;;;;;7.24;58.20;99755.88;5024576;28;20072;-89
2021/12/05 10:13:02;;;;;;;4.00;1.25;;;;;;;6.99;59.12;99752.16;5035589;28;20029;-90
2021/12/05 10:37:30;;;;;;;2.25;0.88;;;;;;;7.26;58.89;99756.69;5007443;28;20299;-89
2021/12/05 10:40:09;;;;;;;2.92;1.38;;;;;;;7.35;58.04;99748.72;4990048;28;20507;-90
2021/12/05 10:42:49;;;;;;;2.10;1.08;;;;;;;7.32;58.23;99756.53;5019684;28;20064;-89
2021/12/05 10:45:32;;;;;;;0.82;0.60;;;;;;;7.56;58.06;99755.09;5035963;28;20088;-89
2021/12/05 10:48:05;;;;;;;2.40;1.10;;;;;;;7.37;59.11;99752.16;5040120;28;20049;-89
2021/12/05 10:50:36;;;;;;;2.17;1.08;;;;;;;7.32;58.19;99748.78;5009502;28;20025;-89
2021/12/05 10:53:39;;;;;;;2.80;0.90;;;;;;;7.52;58.26;99749.16;5037312;28;20044;-89
2021/12/05 10:56:25;;;;;;;2.67;0.77;;;;;;;7.40;57.63;99749.50;5039559;28;20084;-89
2021/12/05 10:58:56;;;;;;;2.17;0.75;;;;;;;7.62;58.15;99744.63;5037899;28;20055;-89
2021/12/05 11:01:30;;;;;;;2.65;1.20;;;;;;;7.41;59.86;99750.31;5039351;28;20029;-89
2021/12/05 11:04:12;;;;;;;2.45;1.65;;;;;;;7.75;57.77;99747.75;5041581;28;20041;-89
2021/12/05 11:06:49;;;;;;;3.03;1.40;;;;;;;7.59;58.60;99742.97;5037009;28;20120;-90
2021/12/05 11:09:22;;;;;;;1.65;1.10;;;;;;;7.71;58.99;99744.38;5039210;28;20530;-89
2021/12/05 11:12:10;;;;;;;0.95;0.90;;;;;;;7.63;60.01;99742.00;5023785;28;20037;-89
2021/12/05 11:14:39;;;;;;;2.53;0.80;;;;;;;7.51;58.66;99750.06;5015061;28;20047;-89
2021/12/05 11:17:13;;;;;;;3.13;1.02;;;;;;;7.57;58.53;99751.66;5041118;28;20040;-89
2021/12/05 11:19:46;;;;;;;1.58;1.00;;;;;;;7.59;59.97;99752.44;5041327;28;20079;-89
2021/12/05 11:22:40;;;;;;;5.35;1.17;;;;;;;7.65;58.99;99750.56;5048895;28;20048;-89
2021/12/05 11:25:21;;;;;;;2.33;1.00;;;;;;;7.61;59.37;99756.69;5041067;28;20063;-89
2021/12/05 11:27:52;;;;;;;2.50;0.90;;;;;;;7.70;59.22;99755.63;5018010;28;20076;-89
2021/12/05 11:30:31;;;;;;;1.50;0.73;;;;;;;7.69;59.10;99753.91;5041370;28;20064;-89
2021/12/05 11:33:18;;;;;;;2.13;0.68;;;;;;;7.58;59.54;99758.53;5048854;28;20174;-90
2021/12/05 11:36:01;;;;;;;1.45;0.75;;;;;;;7.73;58.43;99754.69;5041391;28;20037;-89
2021/12/05 11:38:30;;;;;;;1.45;0.90;;;;;;;7.58;58.92;99749.00;5048925;28;20029;-90
2021/12/05 11:41:12;;;;;;;1.38;0.85;;;;;;;7.76;59.05;99750.28;5037303;28;20152;-90
2021/12/05 11:43:41;;;;;;;0.75;0.65;;;;;;;7.71;58.89;99746.97;5042449;28;20052;-89
2021/12/05 11:46:13;;;;;;;2.08;1.40;;;;;;;7.78;56.27;99747.66;5033278;28;20059;-90
2021/12/05 11:48:46;;;;;;;3.28;0.82;;;;;;;7.80;58.16;99751.91;5043186;28;20754;-90
2021/12/05 11:51:37;;;;;;;2.17;1.05;;;;;;;7.92;57.19;99750.72;5039381;28;20041;-90
2021/12/05 11:54:17;;;;;;;2.05;0.68;;;;;;;7.75;58.35;99755.50;5044941;28;20060;-90
2021/12/05 11:56:52;;;;;;;2.38;0.80;;;;;;;7.65;56.78;99762.63;5037996;28;20385;-89
2021/12/05 11:59:17;;;;;;;4.55;0.93;;;;;;;7.74;56.21;99756.38;5042601;28;20108;-90
2021/12/05 12:01:49;;;;;;;1.13;0.80;;;;;;;7.76;57.20;99757.22;5056580;28;20152;-90
2021/12/05 12:04:18;;;;;;;1.20;0.50;;;;;;;7.60;55.05;99760.19;5046108;28;20064;-90
2021/12/05 12:06:46;;;;;;;0.85;0.43;;;;;;;7.73;55.75;99755.56;5025515;28;20029;-90
2021/12/05 12:09:11;;;;;;;0.82;0.40;;;;;;;7.74;55.59;99758.97;5049594;28;20044;-90
2021/12/05 12:11:37;;;;;;;3.20;0.52;;;;;;;7.79;54.68;99751.97;5039663;28;20033;-90
2021/12/05 12:14:03;;;;;;;0.75;0.43;;;;;;;7.83;54.89;99764.75;5044448;28;20077;-90
2021/12/05 12:16:33;;;;;;;1.25;0.82;;;;;;;7.89;54.45;99759.44;5044386;28;20037;-90
2021/12/05 12:19:02;;;;;;;0.75;0.40;;;;;;;7.87;53.97;99758.63;5043406;28;20041;-90
2021/12/05 12:21:38;;;;;;;1.05;0.40;;;;;;;7.87;54.68;99762.94;5042906;28;20040;-90
2021/12/05 12:24:04;;;;;;;1.80;0.50;;;;;;;7.90;53.18;99763.72;5028623;28;20041;-91
2021/12/05 12:26:30;;;;;;;2.10;0.60;;;;;;;8.01;53.81;99759.09;5046215;28;20116;-90
2021/12/05 12:28:58;;;;;;;1.55;0.50;;;;;;;7.96;54.04;99765.28;5023684;28;20120;-90
2021/12/05 12:31:33;;;;;;;2.05;0.60;;;;;;;7.99;55.05;99766.06;5046757;28;20068;-89
2021/12/05 12:34:02;;;;;;;1.70;0.65;;;;;;;7.95;55.07;99768.75;5048395;28;20401;-90
2021/12/05 12:36:42;;;;;;;0.68;0.60;;;;;;;7.92;53.91;99766.25;5039379;28;20033;-89
2021/12/05 12:39:17;;;;;;;1.13;0.80;;;;;;;8.00;53.37;99769.50;5046296;28;20468;-90
2021/12/05 12:42:12;;;;;;;0.98;0.52;;;;;;;7.98;53.76;99764.34;5045834;28;20521;-89
2021/12/05 12:44:55;;;;;;;;;;;;;;;7.94;52.73;99769.66;5047160;28;20031;-90
2021/12/05 12:47:33;;;;;;;0.60;0.40;;;;;;;7.98;52.21;99774.69;5045544;28;19916;-89
2021/12/05 12:50:34;;;;;;;0.68;0.50;;;;;;;8.06;52.54;99770.16;5062558;28;20069;-89
2021/12/05 12:53:19;;;;;;;1.50;0.90;;;;;;;7.87;52.49;99768.13;5050219;28;20041;-89
2021/12/05 12:55:54;;;;;;;1.88;0.80;;;;;;;7.98;52.07;99772.13;5049937;28;20037;-89
2021/12/05 12:58:43;;;;;;;3.50;2.15;;;;;;;8.04;54.08;99776.28;5045857;28;20515;-89
2021/12/05 13:09:57;;;;;;;1.38;0.80;;;;;;;7.79;53.55;99775.22;5047060;28;20060;-89
2021/12/05 13:10:11;;;;;;;1.20;1.02;;;;;;;7.91;54.52;99773.16;5042520;28;20131;-89
2021/12/05 13:15:10;;;;;;;0.85;0.60;;;;;;;8.04;52.81;99787.47;5040208;28;20044;-89
2021/12/05 13:17:43;;;;;;;4.60;1.33;;;;;;;8.01;52.75;99790.13;5035779;28;20726;-89
2021/12/05 13:20:11;;;;;;;1.20;0.60;;;;;;;7.94;52.18;99787.75;5036098;28;20057;-89
2021/12/05 13:22:58;;;;;;;1.65;0.55;;;;;;;7.96;52.73;99796.31;5023966;28;20112;-90
2021/12/05 13:25:25;;;;;;;1.08;0.70;;;;;;;7.94;54.67;99798.94;5022973;28;20148;-90
2021/12/05 13:27:50;;;;;;;4.57;1.20;;;;;;;8.04;52.42;99795.22;5040133;28;20032;-89
2021/12/05 13:30:36;;;;;;;3.22;1.48;;;;;;;8.14;52.78;99788.09;5028466;28;20112;-89
2021/12/05 13:33:34;;;;;;;2.83;1.40;;;;;;;8.02;53.08;99797.03;5042771;28;20494;-89
2021/12/05 13:36:37;;;;;;;2.67;1.30;;;;;;;8.05;52.62;99798.66;4986532;28;20139;-89
2021/12/05 13:39:03;;;;;;;1.52;1.00;;;;;;;8.01;54.77;99799.63;5042861;28;20402;-89
2021/12/05 13:41:29;;;;;;;1.65;0.80;;;;;;;7.95;55.41;99800.63;5039517;28;20029;-90
2021/12/05 13:44:01;;;;;;;1.38;0.77;;;;;;;8.00;55.50;99805.72;5030720;28;20852;-89
2021/12/05 13:46:39;;;;;;;1.73;0.77;;;;;;;8.18;54.18;99802.63;5040521;28;20084;-89
2021/12/05 13:49:35;;;;;;;0.60;0.60;;;;;;;7.96;56.17;99809.25;5044598;28;20033;-90
2021/12/05 13:52:19;;;;;;;;;;;;;;;8.02;55.40;99811.69;5039637;28;20502;-89
2021/12/05 13:54:44;;;;;;;0.73;0.50;;;;;;;8.00;55.43;99810.88;5040374;28;19921;-89
2021/12/05 13:57:10;;;;;;;2.10;0.60;;;;;;;8.07;55.26;99822.75;5042017;28;20047;-89
2021/12/05 13:59:37;;;;;;;1.10;0.70;;;;;;;8.10;55.16;99818.34;5028214;28;20116;-89
2021/12/05 14:02:03;;;;;;;2.90;1.10;;;;;;;8.00;55.68;99826.41;5030066;28;20069;-89
2021/12/05 14:04:29;;;;;;;0.82;0.65;;;;;;;7.93;56.55;99825.69;5040503;28;21349;-89
2021/12/05 14:07:01;;;;;;;1.92;0.73;;;;;;;8.07;56.70;99833.09;5039173;28;20041;-89
2021/12/05 14:09:31;;;;;;;1.65;0.90;;;;;;;7.98;56.89;99836.75;5035036;28;20041;-89
2021/12/05 14:12:08;;;;;;;2.63;0.93;;;;;;;8.05;56.25;99843.50;5041533;28;20198;-89
2021/12/05 14:14:43;;;;;;;1.88;1.00;;;;;;;8.12;56.09;99841.56;5032804;28;20048;-90
2021/12/05 14:17:22;;;;;;;3.10;0.98;;;;;;;7.99;55.52;99846.22;5033423;28;20049;-90
2021/12/05 14:19:51;;;;;;;1.77;0.73;;;;;;;8.06;54.97;99857.25;5036438;28;20032;-89
2021/12/05 14:22:20;;;;;;;3.05;0.70;;;;;;;8.02;55.64;99859.09;5043684;28;20037;-89
2021/12/05 14:24:49;;;;;;;1.92;0.98;;;;;;;7.97;55.97;99863.50;5042103;28;20036;-89
2021/12/05 14:27:19;;;;;;;1.70;0.70;;;;;;;8.11;54.34;99864.03;5036270;28;20075;-89
2021/12/05 14:29:46;;;;;;;3.08;0.80;;;;;;;8.04;54.17;99870.22;5042335;28;20831;-88
2021/12/05 14:32:22;;;;;;;3.50;0.93;;;;;;;8.09;54.03;99872.69;5037420;28;20029;-89
2021/12/05 14:34:53;;;;;;;1.33;0.73;;;;;;;8.12;54.36;99878.63;5039553;28;20044;-89
2021/12/05 14:37:21;;;;;;;3.63;1.02;;;;;;;8.17;53.95;99887.16;5040029;28;20037;-89
2021/12/05 14:39:49;;;;;;;1.42;0.80;;;;;;;8.14;53.83;99887.25;5053434;28;20040;-89
2021/12/05 14:42:18;;;;;;;2.33;0.80;;;;;;;8.06;52.75;99891.72;5044821;28;20037;-89
2021/12/05 14:44:47;;;;;;;2.10;0.90;;;;;;;7.99;54.64;99895.38;5047483;28;20428;-89
2021/12/05 14:47:25;;;;;;;2.78;1.20;;;;;;;7.90;52.86;99908.53;5053277;28;20109;-89
2021/12/05 14:49:58;;;;;;;3.85;1.05;;;;;;;7.88;55.28;99915.44;5040884;28;20053;-89
2021/12/05 14:52:34;;;;;;;3.92;1.00;;;;;;;7.86;55.18;99911.19;5044350;28;20051;-89
2021/12/05 14:55:01;;;;;;;1.77;1.00;;;;;;;7.80;55.19;99911.34;5022346;28;20445;-89
2021/12/05 14:57:31;;;;;;;1.45;0.98;;;;;;;7.76;53.85;99912.31;5051072;28;20025;-89
2021/12/05 15:00:11;;;;;;;2.67;1.08;;;;;;;7.79;56.25;99914.84;5048283;28;20037;-89
2021/12/05 15:02:38;;;;;;;2.20;0.80;;;;;;;7.85;55.94;99917.28;5040500;28;20440;-89
2021/12/05 15:05:08;;;;;;;2.47;0.98;;;;;;;7.93;54.76;99920.53;5041260;28;20068;-89
2021/12/05 15:07:35;;;;;;;3.47;1.10;;;;;;;7.88;54.05;99923.19;5041685;28;20079;-89
2021/12/05 15:10:00;;;;;;;3.90;1.80;;;;;;;7.86;55.61;99927.56;5044464;28;20065;-89
2021/12/05 15:12:32;;;;;;;3.92;2.00;;;;;;;7.91;54.93;99935.22;5055570;28;20796;-89
2021/12/05 15:15:10;;;;;;;2.88;1.13;;;;;;;7.86;54.85;99939.63;5046715;28;20124;-89
2021/12/05 15:17:39;;;;;;;4.38;1.70;;;;;;;7.91;54.83;99943.81;5045124;28;20056;-89
2021/12/05 15:20:15;;;;;;;1.80;0.98;;;;;;;7.92;54.18;99950.69;5044691;28;20055;-89
2021/12/05 15:22:44;;;;;;;2.03;0.88;;;;;;;7.91;54.36;99948.97;5043166;28;20091;-89
2021/12/05 15:25:14;;;;;;;5.18;1.58;;;;;;;7.98;54.69;99955.72;5034195;28;20036;-89
2021/12/05 15:27:41;;;;;;;2.28;1.13;;;;;;;7.92;55.26;99957.59;5053364;28;20112;-89
2021/12/05 15:30:20;;;;;;;1.67;1.20;;;;;;;7.96;54.73;99956.66;5037769;28;20033;-89
2021/12/05 15:32:51;;;;;;;1.73;1.00;;;;;;;7.93;54.72;99962.75;5042195;28;20026;-88
2021/12/05 15:35:19;;;;;;;3.15;1.13;;;;;;;7.96;54.60;99962.69;5050677;28;20036;-89
2021/12/05 15:37:49;;;;;;;1.77;1.40;;;;;;;7.93;55.65;99972.25;5062472;28;20030;-89
2021/12/05 15:40:14;;;;;;;2.95;1.08;;;;;;;7.92;55.73;99966.22;5034913;28;20030;-89
2021/12/05 15:42:40;;;;;;;2.15;1.35;;;;;;;7.84;56.68;99980.19;5043702;28;20124;-89
2021/12/05 15:45:09;;;;;;;1.08;0.80;;;;;;;7.78;56.58;99986.38;5035357;28;20547;-89
2021/12/05 15:47:36;;;;;;;1.85;1.23;;;;;;;7.75;56.72;99993.34;5057483;28;20021;-89
2021/12/05 15:50:06;;;;;;;2.72;1.08;;;;;;;7.84;56.28;100004.31;5047491;28;20520;-89
2021/12/05 15:52:37;;;;;;;2.92;0.93;;;;;;;7.87;55.92;100006.00;5052030;28;20493;-89
2021/12/05 15:55:10;;;;;;;2.35;1.08;;;;;;;7.90;57.02;100003.34;5047907;28;20067;-89
2021/12/05 15:57:40;;;;;;;2.17;0.95;;;;;;;7.77;56.46;100000.16;5024122;28;20029;-89
2021/12/05 16:00:14;;;;;;;3.05;1.42;;;;;;;7.81;56.05;100008.72;5043810;28;20044;-88
2021/12/05 16:02:41;;;;;;;2.33;1.50;;;;;;;7.84;56.00;100011.22;5039856;28;20504;-88
2021/12/05 16:05:22;;;;;;;3.92;2.00;;;;;;;7.82;55.75;100013.00;5047403;28;20029;-89
2021/12/05 16:07:50;;;;;;;5.50;2.45;;;;;;;7.70;56.53;100017.53;5040929;28;20080;-88
2021/12/05 16:10:23;;;;;;;8.38;2.58;;;;;;;7.86;56.59;100017.22;5041150;28;20034;-89
2021/12/05 16:12:52;;;;;;;7.30;2.38;;;;;;;7.82;55.83;100016.41;5033888;28;20100;-89
2021/12/05 16:15:19;;;;;;;5.32;2.30;;;;;;;7.73;55.81;100021.81;5048059;28;20044;-89
2021/12/05 16:17:54;;;;;;;3.70;2.33;;;;;;;7.61;56.63;100024.66;5049030;28;20578;-88
2021/12/05 16:20:21;;;;;;;;;;;;;;;7.78;56.20;100025.16;5036527;28;20040;-89
2021/12/05 16:22:56;;;;;;;4.93;2.58;;;;;;;7.79;55.40;100024.25;5057456;28;19920;-89
2021/12/05 16:25:22;;;;;;;5.53;2.05;;;;;;;7.84;55.73;100040.53;5034372;28;20166;-84
2021/12/05 16:27:53;;;;;;;3.15;1.95;;;;;;;7.73;55.41;100045.09;5042394;28;20501;-84
2021/12/05 16:30:24;;;;;;;2.58;1.75;;;;;;;7.94;54.91;100048.94;5042017;28;20044;-84
2021/12/05 16:32:51;;;;;;;3.85;1.70;;;;;;;7.90;54.70;100047.31;5042042;28;20119;-84
2021/12/05 16:35:43;;;;;;;3.78;1.80;;;;;;;7.81;55.28;100056.09;5038637;28;20033;-84
2021/12/05 16:38:36;;;;;;;1.70;1.15;;;;;;;7.76;54.21;100060.50;5034928;28;20075;-84
2021/12/05 16:41:29;;;;;;;1.70;1.15;;;;;;;7.92;54.64;100063.63;5042521;28;20037;-84
2021/12/05 16:44:09;;;;;;;4.75;1.63;;;;;;;7.81;55.02;100070.75;5022552;28;20358;-84
2021/12/05 16:46:41;;;;;;;4.88;1.60;;;;;;;7.90;54.79;100075.75;5039988;28;20074;-84
2021/12/05 16:49:11;;;;;;;1.55;1.15;;;;;;;7.87;54.55;100078.41;5055177;28;20040;-84
2021/12/05 16:51:48;;;;;;;1.70;1.00;;;;;;;7.91;54.63;100078.28;5057289;28;20677;-84
2021/12/05 16:54:21;;;;;;;2.78;1.25;;;;;;;7.85;54.75;100080.16;5034701;28;20453;-84
2021/12/05 16:56:59;;;;;;;4.38;1.23;;;;;;;7.57;55.22;100085.03;5043019;28;20462;-84
2021/12/05 16:59:30;;;;;;;3.13;1.27;;;;;;;7.52;55.22;100086.88;5047216;28;20052;-84
2021/12/05 17:02:25;;;;;;;5.15;1.30;;;;;;;7.77;54.91;100084.63;5061538;28;20037;-84
2021/12/05 17:05:04;;;;;;;1.43;1.33;;;;;;;7.57;55.52;100085.88;5052166;28;20565;-84
2021/12/05 17:07:50;;;;;;;2.20;1.13;;;;;;;7.87;54.11;100092.19;5041401;28;20527;-84
2021/12/05 17:10:21;;;;;;;1.95;1.25;;;;;;;7.76;54.36;100099.28;5047483;28;20041;-84
2021/12/05 17:12:49;;;;;;;4.75;1.73;;;;;;;7.80;54.53;100097.50;5042126;28;20033;-84
2021/12/05 17:15:19;;;;;;;4.50;1.60;;;;;;;7.84;55.34;100106.91;5066710;28;20498;-84
2021/12/05 17:17:46;;;;;;;2.92;1.20;;;;;;;7.73;55.60;100114.88;5047611;28;20036;-84
2021/12/05 17:20:25;;;;;;;2.58;1.25;;;;;;;7.83;54.80;100110.34;5038638;28;20032;-84
2021/12/05 17:23:02;;;;;;;2.75;1.38;;;;;;;7.73;54.60;100114.88;5053730;28;20041;-84
2021/12/05 17:25:29;;;;;;;3.10;1.40;;;;;;;7.63;56.75;100119.38;5051884;28;20552;-84
2021/12/05 17:27:55;;;;;;;2.25;1.35;;;;;;;7.73;56.09;100124.38;5053575;28;20509;-84
2021/12/05 17:30:21;;;;;;;6.35;1.35;;;;;;;7.85;55.05;100124.94;5033646;28;20065;-84
2021/12/05 17:32:46;;;;;;;4.22;1.48;;;;;;;7.74;55.21;100131.22;5042574;28;20039;-84
2021/12/05 17:35:12;;;;;;;2.35;1.38;;;;;;;7.63;56.04;100129.72;5030857;28;20083;-84